Pagrindinis puslapis
METAR-TAF:

METAR-TAF

Oro uostai :

Wittmund, Vokietija

platuma: 53-33N, ilguma: 007-40E, Aukštis: 8 m

Dabartinis oras

Ataskaita buvo paskelbta 31 minutes, ne 04:20 UTC
Vėjas 4 kt iš Rytų
Temperatūra 12°C
Drėgmė 71%
Slėgis 1026 hPa
Matomumas 10 km arba daugiau
Su prošvaistėmis ne aukštis 5000 ft
Su prošvaistėmis ne aukštis 24000 ft

METAR: ETNT 310420Z 09004KT 9999 BKN050 BKN240 12/07 Q1026 BLU

Laikas: 06:51 (04:51 UTC)

Prognozė

Ataskaita buvo paskelbta 51 minutes, ne 04:00 UTC
Prognozė galioja nuo 31 metu 05 UTC su 31 metu 14 UTC
Vėjas 5 kt iš Rytų/Šiaurės Rytų
Matomumas 10 km arba daugiau
Išsisklaidę debesys ne aukštis 7000 ft
Su prošvaistėmis ne aukštis 23000 ft
Tapsmas
nuo 31 metu 09 UTC su 31 metu 11 UTC
Vėjas 12 kt iš Šiaurės Rytų su gūsio iki 22 kt
Matomumas 10 km arba daugiau
Išsisklaidę debesys ne aukštis 6000 ft
Su prošvaistėmis ne aukštis 12000 ft

TAF: ETNT 310400Z 3105/3114 07005KT 9999 NSW SCT070 BKN230 BECMG 3109/3111 05012G22KT 9999 NSW SCT060 BKN120 BY ETGL

Orai ataskaitas ir orų prognozės (METAR, TAF).

turimą stotys yra geltonos ir raudonos taškus žemėlapyje.

Perkelti pele per norėdami pamatyti stoties vardą.

Tada spustelėkite, norėdami matyti oro stebėjimo ir prognozės.

Norėdami pakeisti žemėlapį: spustelėkite ant žalios mygtukų su juodo kryžiaus žemyn,; žalią mygtuką su brūkšneliu, jei norite nutolinti; arba žalių rodyklių gretimoms žemėlapius.


METAR-TAF: